createdAt,value
2022-10-02T00:02:10.482Z,96990.06
2022-10-02T00:05:04.668Z,96990.94
2022-10-02T00:07:46.594Z,96986.91
2022-10-02T00:10:18.626Z,97000.94
2022-10-02T00:12:47.327Z,96997.59
2022-10-02T00:15:17.246Z,96996.88
2022-10-02T00:17:47.161Z,97007.91
2022-10-02T00:20:16.308Z,97006.84
2022-10-02T00:23:00.806Z,97016.53
2022-10-02T00:25:49.268Z,97017.06
2022-10-02T00:28:33.839Z,97015.50
2022-10-02T00:31:18.485Z,97017.19
2022-10-02T00:33:56.218Z,97006.13
2022-10-02T00:36:50.110Z,97000.66
2022-10-02T00:39:39.660Z,97008.34
2022-10-02T00:42:40.390Z,97004.63
2022-10-02T00:45:45.722Z,97008.63
2022-10-02T00:48:32.381Z,97009.47
2022-10-02T00:51:40.415Z,97011.44
2022-10-02T00:54:35.862Z,97020.56
2022-10-02T00:57:26.347Z,97033.59
2022-10-02T01:00:26.285Z,97026.53
2022-10-02T01:03:11.524Z,97014.25
2022-10-02T01:05:38.073Z,97022.13
2022-10-02T01:08:06.504Z,97028.81
2022-10-02T01:10:34.216Z,97017.16
2022-10-02T01:13:00.711Z,97025.97
2022-10-02T01:15:33.444Z,97028.59
2022-10-02T01:18:03.509Z,97029.06
2022-10-02T01:20:41.534Z,97033.69
2022-10-02T01:23:32.640Z,97030.41
2022-10-02T01:25:59.401Z,97023.69
2022-10-02T01:28:26.498Z,97018.06
2022-10-02T01:31:00.841Z,97025.66
2022-10-02T01:33:27.256Z,97030.06
2022-10-02T01:35:53.601Z,97032.09
2022-10-02T01:38:23.415Z,97029.44
2022-10-02T01:40:49.695Z,97026.22
2022-10-02T01:43:20.968Z,97030.31
2022-10-02T01:46:20.276Z,97043.75
2022-10-02T01:49:25.674Z,97050.69
2022-10-02T01:52:15.747Z,97053.84
2022-10-02T01:55:09.370Z,97052.03
2022-10-02T01:57:59.179Z,97053.03
2022-10-02T02:00:27.158Z,97044.22
2022-10-02T02:03:18.719Z,97044.66
2022-10-02T02:05:47.988Z,97033.38
2022-10-02T02:08:30.344Z,97040.72
2022-10-02T02:11:18.945Z,97034.31
2022-10-02T02:13:47.927Z,97031.22
2022-10-02T02:16:23.272Z,97032.13
2022-10-02T02:18:58.713Z,97026.69
2022-10-02T02:21:40.608Z,97026.22
2022-10-02T02:24:17.985Z,97017.78
2022-10-02T02:26:46.995Z,97018.72
2022-10-02T02:29:16.951Z,97016.75
2022-10-02T02:31:51.166Z,97008.59
2022-10-02T02:34:22.959Z,97006.63
2022-10-02T02:36:55.027Z,97010.13
2022-10-02T02:39:51.566Z,97010.31
2022-10-02T02:42:25.869Z,97023.13
2022-10-02T02:45:13.968Z,97020.75
2022-10-02T02:47:49.551Z,97023.94
2022-10-02T02:50:47.054Z,97028.97
2022-10-02T02:53:21.490Z,97017.06
2022-10-02T02:56:00.729Z,97022.47
2022-10-02T02:58:30.016Z,97027.00
2022-10-02T03:00:56.844Z,97024.78
2022-10-02T03:03:23.294Z,97020.19
2022-10-02T03:06:15.631Z,97009.75
2022-10-02T03:08:42.915Z,97016.66
2022-10-02T03:11:19.104Z,97011.69
2022-10-02T03:14:12.533Z,97013.88
2022-10-02T03:17:07.115Z,97012.59
2022-10-02T03:19:46.657Z,97009.19
2022-10-02T03:22:24.632Z,97013.66
2022-10-02T03:25:04.308Z,97014.16
2022-10-02T03:27:50.874Z,97011.53
2022-10-02T03:30:21.875Z,97012.59
2022-10-02T03:32:53.343Z,97009.16
2022-10-02T03:35:22.058Z,97008.44
2022-10-02T03:37:52.852Z,96997.75
2022-10-02T03:40:26.092Z,97012.91
2022-10-02T03:42:53.721Z,97021.13
2022-10-02T03:45:46.320Z,97009.56
2022-10-02T03:48:06.492Z,97011.28
2022-10-02T03:50:36.362Z,97010.69
2022-10-02T03:53:12.981Z,97015.13
2022-10-02T03:55:43.839Z,97005.13
2022-10-02T03:58:14.483Z,97012.06
2022-10-02T04:00:55.228Z,97015.97
2022-10-02T04:03:33.825Z,97014.00
2022-10-02T04:06:16.721Z,97011.78
2022-10-02T04:08:53.978Z,97017.53
2022-10-02T04:11:38.449Z,97015.00
2022-10-02T04:14:12.530Z,97015.38
2022-10-02T04:17:01.201Z,97014.41
2022-10-02T04:20:10.354Z,97015.69
2022-10-02T04:23:20.700Z,97016.56
2022-10-02T04:25:52.919Z,97008.34
2022-10-02T04:28:28.494Z,97004.06
2022-10-02T04:30:55.653Z,97007.59
2022-10-02T04:33:24.452Z,97008.50
2022-10-02T04:36:21.780Z,97003.59
2022-10-02T04:39:12.713Z,97010.78
2022-10-02T04:42:07.318Z,97006.97
2022-10-02T04:45:09.027Z,96995.34
2022-10-02T04:47:38.359Z,96992.91
2022-10-02T04:50:26.396Z,97004.47
2022-10-02T04:52:58.869Z,97004.00
2022-10-02T04:56:05.836Z,97005.09
2022-10-02T04:58:59.978Z,97004.25
2022-10-02T05:01:53.543Z,97005.72
2022-10-02T05:04:35.493Z,97004.03
2022-10-02T05:07:19.894Z,97003.91
2022-10-02T05:10:02.275Z,97004.97
2022-10-02T05:13:08.159Z,97001.50
2022-10-02T05:15:47.730Z,97004.56
2022-10-02T05:18:23.120Z,97003.38
2022-10-02T05:20:58.637Z,96997.44
2022-10-02T05:23:49.809Z,97002.72
2022-10-02T05:26:23.243Z,96999.50
2022-10-02T05:29:12.283Z,97008.38
2022-10-02T05:31:58.169Z,96998.09
2022-10-02T05:34:49.139Z,96996.44
2022-10-02T05:37:53.065Z,96996.22
2022-10-02T05:40:38.159Z,96998.69
2022-10-02T05:43:15.294Z,96993.66
2022-10-02T05:45:52.168Z,96991.09
2022-10-02T05:48:27.890Z,96987.38
2022-10-02T05:51:08.978Z,96987.91
2022-10-02T05:53:40.382Z,96981.94
2022-10-02T05:56:23.743Z,96981.94
2022-10-02T05:58:56.528Z,96986.16
2022-10-02T06:01:28.045Z,96983.13
2022-10-02T06:04:03.355Z,96986.44
2022-10-02T06:06:39.550Z,96980.63
2022-10-02T06:09:18.987Z,96980.91
2022-10-02T06:12:06.416Z,96977.28
2022-10-02T06:14:50.588Z,96979.13
2022-10-02T06:17:45.538Z,96980.63
2022-10-02T06:20:23.945Z,96978.53
2022-10-02T06:23:07.552Z,96983.66
2022-10-02T06:26:03.110Z,96981.88
2022-10-02T06:28:50.582Z,96994.19
2022-10-02T06:31:32.045Z,96988.19
2022-10-02T06:33:58.421Z,96984.06
2022-10-02T06:36:33.832Z,96981.19
2022-10-02T06:39:14.125Z,96983.91
2022-10-02T06:42:11.352Z,96980.75
2022-10-02T06:44:52.838Z,96973.63
2022-10-02T06:47:50.620Z,96981.41
2022-10-02T06:50:32.132Z,96977.47
2022-10-02T06:53:21.600Z,96968.97
2022-10-02T06:56:02.553Z,96974.69
2022-10-02T06:58:45.924Z,96979.97
2022-10-02T07:01:38.004Z,96977.19
2022-10-02T07:04:33.163Z,96973.25
2022-10-02T07:07:18.629Z,96969.16
2022-10-02T07:10:12.446Z,96970.00
2022-10-02T07:12:57.311Z,96975.50
2022-10-02T07:15:53.145Z,96976.19
2022-10-02T07:18:58.809Z,96973.25
2022-10-02T07:21:48.171Z,96968.78
2022-10-02T07:24:28.194Z,96968.50
2022-10-02T07:27:10.394Z,96969.50
2022-10-02T07:29:48.193Z,96974.72
2022-10-02T07:32:39.843Z,96974.06
2022-10-02T07:35:39.650Z,96981.81
2022-10-02T07:38:45.047Z,96964.75
2022-10-02T07:41:49.372Z,96967.56
2022-10-02T07:44:52.969Z,96961.97
2022-10-02T07:47:47.474Z,96963.78
2022-10-02T07:50:53.110Z,96976.16
2022-10-02T07:53:38.939Z,96964.97
2022-10-02T07:56:08.211Z,96971.63
2022-10-02T07:58:38.332Z,96968.03
2022-10-02T08:01:12.578Z,96970.38
2022-10-02T08:03:54.497Z,96970.03
2022-10-02T08:06:20.815Z,96965.75
2022-10-02T08:09:11.312Z,96959.47
2022-10-02T08:11:49.184Z,96958.53
2022-10-02T08:14:31.026Z,96963.81
2022-10-02T08:17:02.479Z,96962.69
2022-10-02T08:19:40.042Z,96976.31
2022-10-02T08:22:23.340Z,96973.03
2022-10-02T08:24:54.985Z,96963.75
2022-10-02T08:27:24.282Z,96980.19
2022-10-02T08:29:55.851Z,96973.53
2022-10-02T08:32:22.563Z,96985.38
2022-10-02T08:34:49.053Z,96967.72
2022-10-02T08:37:29.291Z,96970.19
2022-10-02T08:40:14.348Z,96951.59
2022-10-02T08:42:59.309Z,96947.50
2022-10-02T08:45:53.813Z,96940.09
2022-10-02T08:48:26.564Z,96945.75
2022-10-02T08:50:59.172Z,96961.03
2022-10-02T08:53:52.884Z,96949.13
2022-10-02T08:56:31.963Z,96946.81
2022-10-02T08:59:19.059Z,96935.69
2022-10-02T09:02:27.500Z,96947.78
2022-10-02T09:05:18.746Z,96937.91
2022-10-02T09:08:22.724Z,96941.41
2022-10-02T09:10:48.947Z,96939.44
2022-10-02T09:13:36.581Z,96949.91
2022-10-02T09:16:27.984Z,96939.97
2022-10-02T09:19:00.026Z,96931.41
2022-10-02T09:21:58.947Z,96934.56
2022-10-02T09:24:51.565Z,96938.69
2022-10-02T09:27:33.969Z,96944.34
2022-10-02T09:30:18.754Z,96946.66
2022-10-02T09:33:02.766Z,96939.56
2022-10-02T09:36:13.805Z,96939.38
2022-10-02T09:38:46.073Z,96942.91
2022-10-02T09:41:34.419Z,96937.72
2022-10-02T09:44:19.672Z,96937.44
2022-10-02T09:47:30.159Z,96938.41
2022-10-02T09:50:18.239Z,96939.84
2022-10-02T09:53:05.906Z,96936.53
2022-10-02T09:56:08.971Z,96942.34
2022-10-02T09:58:47.457Z,96932.13
2022-10-02T10:01:41.466Z,96934.47
2022-10-02T10:05:04.476Z,96930.69
2022-10-02T10:07:53.551Z,96922.94
2022-10-02T10:10:36.621Z,96923.59
2022-10-02T10:13:21.312Z,96934.34
2022-10-02T10:16:01.210Z,96927.38
2022-10-02T10:19:02.907Z,96929.81
2022-10-02T10:22:09.361Z,96927.19
2022-10-02T10:25:10.634Z,96933.78
2022-10-02T10:28:12.630Z,96929.94
2022-10-02T10:30:57.431Z,96924.75
2022-10-02T10:34:09.299Z,96923.97
2022-10-02T10:37:14.572Z,96933.06
2022-10-02T10:40:14.213Z,96925.56
2022-10-02T10:43:07.478Z,96915.63
2022-10-02T10:46:14.738Z,96921.69
2022-10-02T10:49:18.572Z,96918.59
2022-10-02T10:52:13.980Z,96903.22
2022-10-02T10:55:11.721Z,96923.53
2022-10-02T10:58:02.606Z,96919.56
2022-10-02T11:00:50.512Z,96916.59
2022-10-02T11:03:34.023Z,96916.94
2022-10-02T11:06:18.854Z,96916.59
2022-10-02T11:09:05.029Z,96919.91
2022-10-02T11:11:45.324Z,96922.69
2022-10-02T11:14:41.410Z,96916.44
2022-10-02T11:17:22.765Z,96918.28
2022-10-02T11:20:06.803Z,96906.19
2022-10-02T11:23:05.492Z,96900.91
2022-10-02T11:25:46.665Z,96889.47
2022-10-02T11:28:58.882Z,96890.16
2022-10-02T11:31:53.691Z,96888.66
2022-10-02T11:34:48.667Z,96876.88
2022-10-02T11:37:43.231Z,96871.41
2022-10-02T11:40:17.416Z,96868.91
2022-10-02T11:42:56.807Z,96876.88
2022-10-02T11:45:38.814Z,96873.84
2022-10-02T11:48:33.272Z,96857.59
2022-10-02T11:51:18.338Z,96870.03
2022-10-02T11:53:52.194Z,96862.88
2022-10-02T11:56:24.667Z,96866.88
2022-10-02T11:59:35.673Z,96858.03
2022-10-02T12:02:30.135Z,96857.22
2022-10-02T12:05:25.351Z,96851.44
2022-10-02T12:08:15.677Z,96841.47
2022-10-02T12:10:52.813Z,96854.59
2022-10-02T12:13:28.013Z,96852.56
2022-10-02T12:16:11.558Z,96841.38
2022-10-02T12:19:06.405Z,96846.13
2022-10-02T12:22:05.704Z,96844.09
2022-10-02T12:25:07.759Z,96845.06
2022-10-02T12:28:04.956Z,96850.75
2022-10-02T12:30:50.232Z,96828.47
2022-10-02T12:34:14.014Z,96842.00
2022-10-02T12:36:51.239Z,96826.50
2022-10-02T12:39:37.099Z,96825.41
2022-10-02T12:42:15.511Z,96817.44
2022-10-02T12:45:11.844Z,96827.69
2022-10-02T12:48:03.990Z,96827.47
2022-10-02T12:50:46.175Z,96817.28
2022-10-02T12:53:44.915Z,96815.88
2022-10-02T12:56:48.740Z,96819.81
2022-10-02T12:59:39.478Z,96814.44
2022-10-02T13:02:49.237Z,96820.59
2022-10-02T13:05:46.781Z,96799.97
2022-10-02T13:08:48.927Z,96803.81
2022-10-02T13:11:45.632Z,96797.25
2022-10-02T13:14:26.430Z,96804.53
2022-10-02T13:17:10.075Z,96794.16
2022-10-02T13:20:16.677Z,96793.16
2022-10-02T13:23:48.714Z,96792.09
2022-10-02T13:26:54.416Z,96786.69
2022-10-02T13:30:03.062Z,96787.94
2022-10-02T13:33:08.341Z,96779.50
2022-10-02T13:36:03.834Z,96782.41
2022-10-02T13:38:43.939Z,96791.34
2022-10-02T13:41:29.855Z,96792.09
2022-10-02T13:44:12.291Z,96792.16
2022-10-02T13:47:03.928Z,96795.94
2022-10-02T13:50:06.078Z,96792.09
2022-10-02T13:52:45.637Z,96792.88
2022-10-02T13:55:23.167Z,96781.19
2022-10-02T13:58:17.358Z,96789.31
2022-10-02T14:00:46.667Z,96789.50
2022-10-02T14:03:43.045Z,96789.22
2022-10-02T14:06:47.581Z,96788.03
2022-10-02T14:09:43.906Z,96789.66
2022-10-02T14:12:32.938Z,96789.22
2022-10-02T14:15:18.049Z,96793.22
2022-10-02T14:17:56.954Z,96799.84
2022-10-02T14:20:43.273Z,96772.06
2022-10-02T14:23:39.828Z,96788.88
2022-10-02T14:26:18.486Z,96792.88
2022-10-02T14:29:09.138Z,96789.22
2022-10-02T14:31:57.222Z,96792.34
2022-10-02T14:34:50.589Z,96789.59
2022-10-02T14:37:47.826Z,96791.16
2022-10-02T14:40:17.187Z,96782.09
2022-10-02T14:43:19.609Z,96786.94
2022-10-02T14:45:57.994Z,96800.56
2022-10-02T14:48:42.084Z,96795.75
2022-10-02T14:51:15.327Z,96804.81
2022-10-02T14:54:02.929Z,96806.25
2022-10-02T14:56:53.910Z,96808.28
2022-10-02T15:00:14.759Z,96816.69
2022-10-02T15:03:03.487Z,96810.53
2022-10-02T15:05:50.779Z,96818.72
2022-10-02T15:08:27.359Z,96836.03
2022-10-02T15:10:54.766Z,96830.50
2022-10-02T15:13:39.667Z,96825.06
2022-10-02T15:16:37.500Z,96816.63
2022-10-02T15:19:18.092Z,96824.13
2022-10-02T15:22:02.588Z,96818.06
2022-10-02T15:24:48.015Z,96821.47
2022-10-02T15:27:37.499Z,96819.09
2022-10-02T15:30:15.092Z,96820.03
2022-10-02T15:32:48.214Z,96824.72
2022-10-02T15:35:39.721Z,96822.47
2022-10-02T15:38:33.519Z,96834.34
2022-10-02T15:41:22.286Z,96842.94
2022-10-02T15:44:11.066Z,96827.88
2022-10-02T15:46:54.372Z,96840.88
2022-10-02T15:49:45.559Z,96861.91
2022-10-02T15:53:00.114Z,96870.44
2022-10-02T15:55:41.407Z,96850.91
2022-10-02T15:58:19.625Z,96866.34
2022-10-02T16:01:01.479Z,96884.84
2022-10-02T16:03:45.211Z,96881.56
2022-10-02T16:06:53.170Z,96894.59
2022-10-02T16:09:40.911Z,96891.94
2022-10-02T16:12:27.113Z,96888.72
2022-10-02T16:15:05.556Z,96877.25
2022-10-02T16:17:45.345Z,96893.75
2022-10-02T16:20:47.302Z,96893.88
2022-10-02T16:23:54.814Z,96899.19
2022-10-02T16:26:27.374Z,96891.88
2022-10-02T16:29:27.809Z,96898.31
2022-10-02T16:32:04.521Z,96904.75
2022-10-02T16:35:16.327Z,96900.78
2022-10-02T16:37:55.222Z,96901.94
2022-10-02T16:40:44.314Z,96902.41
2022-10-02T16:43:31.776Z,96904.28
2022-10-02T16:46:07.403Z,96919.72
2022-10-02T16:49:00.891Z,96914.53
2022-10-02T16:51:33.664Z,96912.59
2022-10-02T16:54:12.900Z,96918.22
2022-10-02T16:56:44.856Z,96912.94
2022-10-02T16:59:17.332Z,96917.56
2022-10-02T17:02:17.109Z,96920.06
2022-10-02T17:05:04.321Z,96935.09
2022-10-02T17:07:40.327Z,96930.31
2022-10-02T17:10:18.096Z,96939.63
2022-10-02T17:12:52.383Z,96939.97
2022-10-02T17:15:40.596Z,96941.78
2022-10-02T17:18:38.276Z,96953.41
2022-10-02T17:21:15.535Z,96953.88
2022-10-02T17:24:20.051Z,96958.03
2022-10-02T17:27:07.629Z,96964.34
2022-10-02T17:29:47.790Z,96979.25
2022-10-02T17:32:33.818Z,96980.22
2022-10-02T17:35:14.099Z,96997.81
2022-10-02T17:37:59.211Z,97002.94
2022-10-02T17:41:05.971Z,96995.81
2022-10-02T17:43:37.800Z,96998.47
2022-10-02T17:46:19.467Z,96980.56
2022-10-02T17:49:02.164Z,96997.97
2022-10-02T17:51:53.352Z,96986.88
2022-10-02T17:54:51.099Z,96990.53
2022-10-02T17:57:47.702Z,96998.13
2022-10-02T18:00:21.909Z,96997.47
2022-10-02T18:03:04.010Z,96995.81
2022-10-02T18:05:47.875Z,97000.44
2022-10-02T18:08:39.482Z,96998.28
2022-10-02T18:11:26.187Z,97000.75
2022-10-02T18:14:31.022Z,96997.44
2022-10-02T18:17:15.630Z,96999.78
2022-10-02T18:19:42.058Z,97003.41
2022-10-02T18:22:17.544Z,97008.72
2022-10-02T18:24:56.981Z,97003.75
2022-10-02T18:27:32.307Z,97008.38
2022-10-02T18:30:20.115Z,97000.69
2022-10-02T18:33:07.788Z,96998.75
2022-10-02T18:36:12.808Z,96998.41
2022-10-02T18:39:00.568Z,97002.47
2022-10-02T18:41:47.010Z,97017.03
2022-10-02T18:44:53.823Z,97013.91
2022-10-02T18:47:26.425Z,97017.56
2022-10-02T18:50:14.785Z,97011.00
2022-10-02T18:52:53.406Z,97005.94
2022-10-02T18:55:38.790Z,97000.50
2022-10-02T18:58:20.159Z,97003.13
2022-10-02T19:01:14.855Z,97007.41
2022-10-02T19:04:02.190Z,97005.72
2022-10-02T19:07:02.831Z,97005.53
2022-10-02T19:09:30.785Z,97015.72
2022-10-02T19:12:01.266Z,97015.25
2022-10-02T19:14:55.972Z,97022.44
2022-10-02T19:17:25.888Z,97022.03
2022-10-02T19:19:53.531Z,97022.44
2022-10-02T19:22:24.386Z,97028.66
2022-10-02T19:25:05.289Z,97031.88
2022-10-02T19:27:34.496Z,97023.28
2022-10-02T19:30:05.172Z,97013.84
2022-10-02T19:32:43.247Z,97027.31
2022-10-02T19:35:20.664Z,97020.44
2022-10-02T19:37:50.068Z,97024.28
2022-10-02T19:40:33.467Z,97029.19
2022-10-02T19:43:09.449Z,97024.94
2022-10-02T19:45:41.320Z,97036.66
2022-10-02T19:48:10.656Z,97030.09
2022-10-02T19:50:41.887Z,97027.34
2022-10-02T19:53:20.258Z,97022.09
2022-10-02T19:55:52.516Z,97028.09
2022-10-02T19:58:22.039Z,97032.59
2022-10-02T20:00:52.882Z,97024.81
2022-10-02T20:03:22.151Z,97027.16
2022-10-02T20:05:56.671Z,97025.75
2022-10-02T20:08:28.816Z,97040.00
2022-10-02T20:11:28.902Z,97040.53
2022-10-02T20:14:03.603Z,97045.03
2022-10-02T20:16:48.614Z,97044.91
2022-10-02T20:19:24.887Z,97039.66
2022-10-02T20:22:03.950Z,97046.50
2022-10-02T20:24:42.951Z,97049.00
2022-10-02T20:27:23.311Z,97060.81
2022-10-02T20:29:56.402Z,97065.41
2022-10-02T20:32:35.104Z,97069.03
2022-10-02T20:35:10.341Z,97066.25
2022-10-02T20:37:40.649Z,97055.91
2022-10-02T20:40:36.615Z,97058.53
2022-10-02T20:43:19.643Z,97053.06
2022-10-02T20:45:58.643Z,97060.81
2022-10-02T20:49:08.612Z,97062.72
2022-10-02T20:52:02.679Z,97079.00
2022-10-02T20:54:42.395Z,97079.91
2022-10-02T20:57:49.683Z,97087.75
2022-10-02T21:00:24.928Z,97086.94
2022-10-02T21:03:06.618Z,97089.19
2022-10-02T21:06:12.842Z,97086.75
2022-10-02T21:09:00.949Z,97088.66
2022-10-02T21:11:42.460Z,97092.97
2022-10-02T21:14:27.568Z,97090.63
2022-10-02T21:17:13.017Z,97091.69
2022-10-02T21:19:48.634Z,97103.75
2022-10-02T21:22:42.282Z,97106.88
2022-10-02T21:25:42.133Z,97114.41
2022-10-02T21:28:20.593Z,97115.84
2022-10-02T21:31:10.468Z,97121.78
2022-10-02T21:33:48.833Z,97106.72
2022-10-02T21:36:22.796Z,97116.59
2022-10-02T21:39:23.591Z,97115.31
2022-10-02T21:42:07.152Z,97118.13
2022-10-02T21:45:04.654Z,97122.34
2022-10-02T21:47:34.919Z,97121.59
2022-10-02T21:50:27.901Z,97125.34
2022-10-02T21:53:13.137Z,97124.00
2022-10-02T21:56:13.968Z,97120.06
2022-10-02T21:58:59.059Z,97116.53
2022-10-02T22:01:42.710Z,97122.50
2022-10-02T22:04:58.451Z,97124.94
2022-10-02T22:07:47.213Z,97130.06
2022-10-02T22:10:48.042Z,97127.19
2022-10-02T22:13:37.748Z,97126.13
2022-10-02T22:16:19.722Z,97130.13
2022-10-02T22:18:58.815Z,97136.28
2022-10-02T22:21:51.994Z,97128.66
2022-10-02T22:24:55.667Z,97134.34
2022-10-02T22:27:49.982Z,97141.31
2022-10-02T22:30:25.944Z,97146.09
2022-10-02T22:33:10.033Z,97135.97
2022-10-02T22:36:04.415Z,97141.84
2022-10-02T22:38:35.515Z,97152.03
2022-10-02T22:41:11.402Z,97144.16
2022-10-02T22:43:43.688Z,97147.84
2022-10-02T22:46:20.271Z,97153.78
2022-10-02T22:48:58.898Z,97163.25
2022-10-02T22:51:40.238Z,97161.44
2022-10-02T22:54:29.613Z,97160.97
2022-10-02T22:57:01.741Z,97169.16
2022-10-02T22:59:32.492Z,97176.19
2022-10-02T23:02:04.496Z,97173.06
2022-10-02T23:04:40.370Z,97179.44
2022-10-02T23:07:34.651Z,97175.78
2022-10-02T23:10:20.692Z,97181.41
2022-10-02T23:12:59.848Z,97174.06
2022-10-02T23:15:55.646Z,97175.28
2022-10-02T23:18:40.736Z,97173.81
2022-10-02T23:21:13.015Z,97166.59
2022-10-02T23:23:53.605Z,97169.44
2022-10-02T23:26:32.189Z,97172.59
2022-10-02T23:29:13.249Z,97172.28
2022-10-02T23:32:13.660Z,97178.41
2022-10-02T23:34:57.262Z,97180.06
2022-10-02T23:37:41.768Z,97179.09
2022-10-02T23:40:49.111Z,97177.38
2022-10-02T23:43:32.649Z,97183.19
2022-10-02T23:46:04.489Z,97183.19
2022-10-02T23:48:32.287Z,97181.31
2022-10-02T23:51:26.244Z,97183.50
2022-10-02T23:54:02.913Z,97180.03
2022-10-02T23:56:47.576Z,97179.53
2022-10-02T23:59:46.809Z,97184.97
